createdAt,value
2022-08-26T00:00:54.574Z,17.4
2022-08-26T00:06:37.408Z,17.4
2022-08-26T00:18:38.637Z,17.3
2022-08-26T00:24:23.552Z,17.2
2022-08-26T00:30:05.178Z,17.1
2022-08-26T00:41:00.825Z,16.9
2022-08-26T00:46:22.791Z,16.8
2022-08-26T00:52:28.144Z,16.7
2022-08-26T00:58:20.575Z,16.6
2022-08-26T01:04:08.542Z,16.4
2022-08-26T01:09:40.640Z,16.4
2022-08-26T01:15:07.214Z,16.3
2022-08-26T01:20:58.427Z,16.1
2022-08-26T01:26:58.192Z,16.1
2022-08-26T01:32:42.927Z,16.1
2022-08-26T01:38:40.343Z,15.9
2022-08-26T01:44:33.178Z,15.8
2022-08-26T01:50:27.991Z,15.8
2022-08-26T01:56:52.907Z,15.7
2022-08-26T02:02:31.887Z,15.6
2022-08-26T02:08:24.537Z,15.6
2022-08-26T02:14:14.582Z,15.5
2022-08-26T02:20:06.566Z,15.5
2022-08-26T02:25:43.910Z,15.4
2022-08-26T02:31:21.178Z,15.3
2022-08-26T02:37:11.066Z,15.3
2022-08-26T02:42:58.929Z,15.2
2022-08-26T02:48:56.862Z,15.1
2022-08-26T03:00:05.956Z,15
2022-08-26T03:06:12.818Z,14.9
2022-08-26T03:11:49.509Z,14.9
2022-08-26T03:17:43.942Z,14.8
2022-08-26T03:23:12.392Z,14.8
2022-08-26T03:28:57.619Z,14.8
2022-08-26T03:34:46.283Z,14.7
2022-08-26T03:40:30.398Z,14.7
2022-08-26T03:45:54.726Z,14.7
2022-08-26T03:51:42.875Z,14.6
2022-08-26T03:57:36.848Z,14.6
2022-08-26T04:03:26.780Z,14.6
2022-08-26T04:09:06.227Z,14.6
2022-08-26T04:14:54.204Z,14.6
2022-08-26T04:20:23.094Z,14.7
2022-08-26T04:26:06.899Z,14.8
2022-08-26T04:31:49.924Z,14.8
2022-08-26T04:37:52.694Z,14.9
2022-08-26T04:43:25.555Z,15
2022-08-26T04:49:15.333Z,15.1
2022-08-26T04:55:02.880Z,15.3
2022-08-26T05:01:06.911Z,15.6
2022-08-26T05:06:56.729Z,15.8
2022-08-26T05:12:16.375Z,16.1
2022-08-26T05:18:09.191Z,16.5
2022-08-26T05:23:53.934Z,16.8
2022-08-26T05:29:38.006Z,17.2
2022-08-26T05:35:09.559Z,17.6
2022-08-26T05:46:44.167Z,18.6
2022-08-26T05:52:29.233Z,19.1
2022-08-26T05:58:20.699Z,19.8
2022-08-26T06:04:10.487Z,20.4
2022-08-26T06:10:21.561Z,20.8
2022-08-26T06:16:26.771Z,21.4
2022-08-26T06:22:11.512Z,22.1
2022-08-26T06:28:11.001Z,22.9
2022-08-26T06:34:01.131Z,26.2
2022-08-26T06:39:47.995Z,29.3
2022-08-26T06:45:37.127Z,34.3
2022-08-26T06:51:19.529Z,33.3
2022-08-26T06:57:04.410Z,32.9
2022-08-26T07:03:02.707Z,32.9
2022-08-26T07:08:55.456Z,34.8
2022-08-26T07:14:47.270Z,39.6
2022-08-26T07:20:59.518Z,40.8
2022-08-26T07:26:47.915Z,40.5
2022-08-26T07:32:39.518Z,40.4
2022-08-26T07:38:35.144Z,40.4
2022-08-26T07:44:20.848Z,40.4
2022-08-26T07:50:18.577Z,40.4
2022-08-26T07:56:15.706Z,40.5
2022-08-26T08:02:12.421Z,40.6
2022-08-26T08:08:44.215Z,40.7
2022-08-26T08:14:16.022Z,40.9
2022-08-26T08:20:17.149Z,41.2
2022-08-26T08:26:24.704Z,41.6
2022-08-26T08:32:35.881Z,41.9
2022-08-26T08:38:24.326Z,42.4
2022-08-26T08:44:07.221Z,42.8
2022-08-26T08:49:56.286Z,43.2
2022-08-26T08:55:50.243Z,43.5
2022-08-26T09:01:42.626Z,43.9
2022-08-26T09:07:36.620Z,44.3
2022-08-26T09:13:26.344Z,44.4
2022-08-26T09:19:02.724Z,44.9
2022-08-26T09:24:58.101Z,45.8
2022-08-26T09:30:49.809Z,47.3
2022-08-26T09:36:45.680Z,47.9
2022-08-26T09:42:42.229Z,47.8
2022-08-26T09:48:40.507Z,47.8
2022-08-26T09:54:30.105Z,47.8
2022-08-26T10:00:13.300Z,47.9
2022-08-26T10:06:03.515Z,48
2022-08-26T10:11:48.937Z,48
2022-08-26T10:17:40.821Z,48.1
2022-08-26T10:23:55.398Z,48.7
2022-08-26T10:29:56.122Z,49.8
2022-08-26T10:35:50.532Z,49.8
2022-08-26T10:42:12.753Z,45.1
2022-08-26T10:48:04.648Z,45.1
2022-08-26T10:54:07.876Z,45.9
2022-08-26T10:59:57.178Z,47.6
2022-08-26T11:06:04.241Z,49.1
2022-08-26T11:11:57.522Z,49.9
2022-08-26T11:18:11.228Z,50.8
2022-08-26T11:24:16.282Z,50.6
2022-08-26T11:30:31.166Z,50.3
2022-08-26T11:36:28.828Z,50.6
2022-08-26T11:42:22.574Z,51.9
2022-08-26T11:48:11.454Z,51.9
2022-08-26T11:53:57.260Z,52
2022-08-26T11:59:54.189Z,52.9
2022-08-26T12:05:31.056Z,53.4
2022-08-26T12:10:55.479Z,53.8
2022-08-26T12:16:24.766Z,54.1
2022-08-26T12:22:16.527Z,54.4
2022-08-26T12:27:58.071Z,54.7
2022-08-26T12:34:34.842Z,55
2022-08-26T12:40:19.527Z,54.9
2022-08-26T12:51:23.900Z,55.1
2022-08-26T12:56:45.201Z,55
2022-08-26T13:02:30.728Z,55.2
2022-08-26T13:08:16.754Z,55.4
2022-08-26T13:25:00.807Z,55.9
2022-08-26T13:30:47.037Z,55.9
2022-08-26T13:36:18.771Z,55.9
2022-08-26T13:42:07.383Z,55.9
2022-08-26T13:47:54.021Z,55.3
2022-08-26T13:53:41.572Z,54.9
2022-08-26T13:59:20.206Z,54.7
2022-08-26T14:10:32.936Z,53.6
2022-08-26T14:16:09.625Z,53.2
2022-08-26T14:22:16.246Z,52.8
2022-08-26T14:33:53.618Z,52.6
2022-08-26T14:39:33.259Z,52.1
2022-08-26T14:45:37.537Z,51.5
2022-08-26T14:51:18.611Z,51.1
2022-08-26T14:56:56.784Z,50.8
2022-08-26T15:02:50.374Z,50.4
2022-08-26T15:08:29.429Z,50.1
2022-08-26T15:14:08.468Z,49.8
2022-08-26T15:19:41.090Z,49.3
2022-08-26T15:25:23.497Z,48.9
2022-08-26T15:30:48.737Z,48.6
2022-08-26T15:36:37.766Z,48.1
2022-08-26T15:42:15.626Z,47.6
2022-08-26T15:48:39.463Z,47.2
2022-08-26T15:54:26.852Z,46.8
2022-08-26T16:00:13.505Z,46.3
2022-08-26T16:05:58.172Z,45.9
2022-08-26T16:11:44.341Z,45.5
2022-08-26T16:17:37.913Z,45.1
2022-08-26T16:23:39.612Z,44.8
2022-08-26T16:29:22.761Z,44.4
2022-08-26T16:35:13.315Z,44
2022-08-26T16:40:55.961Z,42.2
2022-08-26T16:46:40.013Z,40.9
2022-08-26T16:52:18.297Z,39.7
2022-08-26T16:58:02.066Z,38.4
2022-08-26T17:03:42.785Z,37.3
2022-08-26T17:09:22.791Z,36.1
2022-08-26T17:15:18.229Z,34.3
2022-08-26T17:21:06.113Z,32.8
2022-08-26T17:26:32.839Z,31.7
2022-08-26T17:37:31.806Z,29.9
2022-08-26T17:48:41.986Z,28.3
2022-08-26T17:54:13.239Z,27.6
2022-08-26T17:59:30.656Z,27
2022-08-26T18:05:11.923Z,26.3
2022-08-26T18:10:52.009Z,25.8
2022-08-26T18:16:21.950Z,25.2
2022-08-26T18:21:39.551Z,24.7
2022-08-26T18:27:33.083Z,24.2
2022-08-26T18:33:13.484Z,23.7
2022-08-26T18:38:59.293Z,23.3
2022-08-26T18:44:05.537Z,22.9
2022-08-26T18:49:46.944Z,22.6
2022-08-26T18:55:27.030Z,22.2
2022-08-26T19:01:14.195Z,21.8
2022-08-26T19:06:49.925Z,21.5
2022-08-26T19:12:32.730Z,21.2
2022-08-26T19:18:16.662Z,20.9
2022-08-26T19:24:10.163Z,20.6
2022-08-26T19:29:51.101Z,20.3
2022-08-26T19:41:02.077Z,19.8
2022-08-26T19:46:36.071Z,19.6
2022-08-26T19:52:19.731Z,19.3
2022-08-26T19:58:00.820Z,19.1
2022-08-26T20:03:32.238Z,18.9
2022-08-26T20:09:34.424Z,18.6
2022-08-26T20:15:17.116Z,18.4
2022-08-26T20:21:23.044Z,18.3
2022-08-26T20:27:05.551Z,18.1
2022-08-26T20:32:35.451Z,17.9
2022-08-26T20:37:59.792Z,17.8
2022-08-26T20:43:31.599Z,17.6
2022-08-26T20:49:14.403Z,17.4
2022-08-26T20:54:44.733Z,17.2
2022-08-26T21:05:56.606Z,16.9
2022-08-26T21:11:44.165Z,16.7
2022-08-26T21:17:28.735Z,16.5
2022-08-26T21:23:08.884Z,16.3
2022-08-26T21:28:53.395Z,16.2
2022-08-26T21:34:19.742Z,16.1
2022-08-26T21:40:05.858Z,15.9
2022-08-26T21:45:53.312Z,15.8
2022-08-26T21:51:31.908Z,15.7
2022-08-26T21:57:12.750Z,15.6
2022-08-26T22:02:50.327Z,15.5
2022-08-26T22:08:33.171Z,15.4
2022-08-26T22:13:42.025Z,15.3
2022-08-26T22:18:51.368Z,15.2
2022-08-26T22:24:36.115Z,15.1
2022-08-26T22:30:11.620Z,14.9
2022-08-26T22:36:06.514Z,14.8
2022-08-26T22:41:49.850Z,14.8
2022-08-26T22:53:00.446Z,14.5
2022-08-26T22:58:47.380Z,14.4
2022-08-26T23:04:30.066Z,14.3
2022-08-26T23:09:56.491Z,14.2
2022-08-26T23:20:50.839Z,14
2022-08-26T23:26:22.827Z,13.9
2022-08-26T23:31:27.987Z,13.8
2022-08-26T23:36:56.112Z,13.8
2022-08-26T23:42:35.221Z,13.6
2022-08-26T23:48:17.841Z,13.6
2022-08-26T23:53:40.426Z,13.5
2022-08-26T23:59:03.674Z,13.4
